PUA161 SACO-SULS
Flight info
| Callsign | PUA161 |
|---|---|
| Flight time | 1h 10m |
| Altitude | 35000 |
| Route | GENAS UW6 PAR UL417 CRR |
| Aircraft | A320/M-SDE3FGHIRWY/LB1 |
Departure
| Time | 2026-05-05 16:31 |
|---|---|
| Airport | Ingeniero Aeronáutico Ambrosio L.V. Taravella International Airport (SACO) |
Arrival
| Time | 2026-05-05 17:42 |
|---|---|
| Airport | Capitan Corbeta CA Curbelo International Airport (SULS) |
| Time | Latitude | Longitude | Altitude | Speed | Heading |
|---|---|---|---|---|---|
| 2026-05-05 16:02 | -31.31549 | -64.21169 | 1575 ft | 0 kts | 271° |
| 2026-05-05 16:25 | -31.31549 | -64.21168 | 1602 ft | 2 kts | 271° |
| 2026-05-05 16:25 | -31.31548 | -64.21149 | 1575 ft | 2 kts | 270° |
| 2026-05-05 16:26 | -31.31546 | -64.21111 | 1575 ft | 2 kts | 254° |
| 2026-05-05 16:26 | -31.31526 | -64.21086 | 1575 ft | 1 kts | 181° |
| 2026-05-05 16:27 | -31.31523 | -64.21086 | 1575 ft | 0 kts | 180° |
| 2026-05-05 16:28 | -31.31533 | -64.21086 | 1575 ft | 2 kts | 180° |
| 2026-05-05 16:28 | -31.31557 | -64.21086 | 1575 ft | 4 kts | 180° |
| 2026-05-05 16:28 | -31.31593 | -64.21092 | 1575 ft | 6 kts | 190° |
| 2026-05-05 16:28 | -31.31643 | -64.21098 | 1575 ft | 8 kts | 183° |
| 2026-05-05 16:29 | -31.31706 | -64.21095 | 1575 ft | 11 kts | 166° |
| 2026-05-05 16:29 | -31.31819 | -64.21031 | 1575 ft | 22 kts | 165° |
| 2026-05-05 16:29 | -31.31978 | -64.21025 | 1575 ft | 24 kts | 178° |
| 2026-05-05 16:29 | -31.32153 | -64.21019 | 1575 ft | 26 kts | 179° |
| 2026-05-05 16:30 | -31.32344 | -64.21018 | 1575 ft | 28 kts | 180° |
| 2026-05-05 16:30 | -31.32424 | -64.20878 | 1575 ft | 26 kts | 59° |
| 2026-05-05 16:30 | -31.32261 | -64.20693 | 1574 ft | 46 kts | 41° |
| 2026-05-05 16:30 | -31.31950 | -64.20350 | 1576 ft | 84 kts | 44° |
| 2026-05-05 16:31 | -31.31379 | -64.19694 | 1574 ft | 142 kts | 44° |
| 2026-05-05 16:31 | -31.30585 | -64.18777 | 1882 ft | 166 kts | 44° |
| 2026-05-05 16:31 | -31.29766 | -64.17835 | 2725 ft | 164 kts | 43° |
| 2026-05-05 16:31 | -31.28978 | -64.16876 | 3456 ft | 166 kts | 56° |
| 2026-05-05 16:32 | -31.28776 | -64.15494 | 3780 ft | 190 kts | 101° |
| 2026-05-05 16:32 | -31.29138 | -64.13913 | 4074 ft | 212 kts | 102° |
| 2026-05-05 16:32 | -31.29491 | -64.12141 | 4302 ft | 236 kts | 101° |
| 2026-05-05 16:32 | -31.29855 | -64.10170 | 4695 ft | 261 kts | 101° |
| 2026-05-05 16:33 | -31.30241 | -64.08020 | 5333 ft | 276 kts | 101° |
| 2026-05-05 16:33 | -31.30637 | -64.05793 | 6135 ft | 283 kts | 102° |
| 2026-05-05 16:33 | -31.31041 | -64.03516 | 6909 ft | 289 kts | 102° |
| 2026-05-05 16:33 | -31.31451 | -64.01197 | 7648 ft | 294 kts | 102° |
| 2026-05-05 16:34 | -31.31869 | -63.98837 | 8380 ft | 299 kts | 102° |
| 2026-05-05 16:34 | -31.32297 | -63.96428 | 9102 ft | 305 kts | 102° |
| 2026-05-05 16:34 | -31.32733 | -63.93976 | 9800 ft | 311 kts | 103° |
| 2026-05-05 16:34 | -31.33182 | -63.91447 | 10192 ft | 328 kts | 103° |
| 2026-05-05 16:35 | -31.33663 | -63.88742 | 10362 ft | 351 kts | 102° |
| 2026-05-05 16:35 | -31.34176 | -63.85857 | 10485 ft | 373 kts | 102° |
| 2026-05-05 16:35 | -31.34714 | -63.82828 | 10814 ft | 385 kts | 102° |
| 2026-05-05 16:35 | -31.35261 | -63.79739 | 11332 ft | 390 kts | 103° |
| 2026-05-05 16:36 | -31.35814 | -63.76612 | 11915 ft | 395 kts | 103° |
| 2026-05-05 16:36 | -31.36371 | -63.73453 | 12510 ft | 398 kts | 103° |
| 2026-05-05 16:36 | -31.36930 | -63.70262 | 13097 ft | 402 kts | 103° |
| 2026-05-05 16:36 | -31.37494 | -63.67036 | 13683 ft | 406 kts | 103° |
| 2026-05-05 16:37 | -31.38064 | -63.63781 | 14215 ft | 410 kts | 103° |
| 2026-05-05 16:37 | -31.38635 | -63.60501 | 14731 ft | 414 kts | 103° |
| 2026-05-05 16:37 | -31.39210 | -63.57186 | 15253 ft | 417 kts | 103° |
| 2026-05-05 16:37 | -31.39801 | -63.53795 | 15786 ft | 421 kts | 103° |
| 2026-05-05 16:38 | -31.40391 | -63.50422 | 16318 ft | 425 kts | 103° |
| 2026-05-05 16:38 | -31.40983 | -63.47019 | 16848 ft | 429 kts | 103° |
| 2026-05-05 16:38 | -31.41577 | -63.43586 | 17365 ft | 433 kts | 103° |
| 2026-05-05 16:38 | -31.42178 | -63.40115 | 17885 ft | 437 kts | 103° |
| 2026-05-05 16:39 | -31.42783 | -63.36613 | 18388 ft | 441 kts | 103° |
| 2026-05-05 16:39 | -31.43384 | -63.33129 | 18851 ft | 445 kts | 103° |
| 2026-05-05 16:39 | -31.43999 | -63.29562 | 19325 ft | 449 kts | 103° |
| 2026-05-05 16:39 | -31.44624 | -63.25922 | 19813 ft | 452 kts | 103° |
| 2026-05-05 16:40 | -31.45247 | -63.22298 | 20282 ft | 456 kts | 103° |
| 2026-05-05 16:40 | -31.45873 | -63.18638 | 20752 ft | 460 kts | 103° |
| 2026-05-05 16:40 | -31.46494 | -63.15001 | 21210 ft | 463 kts | 103° |
| 2026-05-05 16:40 | -31.47095 | -63.11230 | 21664 ft | 467 kts | 102° |
| 2026-05-05 16:41 | -31.47630 | -63.07515 | 22094 ft | 470 kts | 101° |
| 2026-05-05 16:41 | -31.48147 | -63.03665 | 22529 ft | 474 kts | 100° |
| 2026-05-05 16:41 | -31.48639 | -62.99884 | 22948 ft | 477 kts | 100° |
| 2026-05-05 16:41 | -31.49142 | -62.96026 | 23370 ft | 481 kts | 100° |
| 2026-05-05 16:42 | -31.49665 | -62.92092 | 23740 ft | 484 kts | 100° |
| 2026-05-05 16:42 | -31.50195 | -62.88184 | 24088 ft | 487 kts | 101° |
| 2026-05-05 16:42 | -31.50737 | -62.84258 | 24434 ft | 490 kts | 101° |
| 2026-05-05 16:42 | -31.51278 | -62.80360 | 24781 ft | 492 kts | 101° |
| 2026-05-05 16:43 | -31.51838 | -62.76337 | 25129 ft | 495 kts | 101° |
| 2026-05-05 16:43 | -31.52389 | -62.72343 | 25481 ft | 498 kts | 101° |
| 2026-05-05 16:43 | -31.52939 | -62.68324 | 25840 ft | 501 kts | 101° |
| 2026-05-05 16:43 | -31.53478 | -62.64335 | 26192 ft | 503 kts | 100° |
| 2026-05-05 16:44 | -31.54026 | -62.60277 | 26539 ft | 506 kts | 101° |
| 2026-05-05 16:44 | -31.54582 | -62.56141 | 26891 ft | 509 kts | 100° |
| 2026-05-05 16:44 | -31.55133 | -62.52036 | 27242 ft | 511 kts | 100° |
| 2026-05-05 16:44 | -31.55689 | -62.47908 | 27589 ft | 513 kts | 101° |
| 2026-05-05 16:45 | -31.56248 | -62.43763 | 27951 ft | 515 kts | 101° |
| 2026-05-05 16:45 | -31.56803 | -62.39622 | 28458 ft | 514 kts | 100° |
| 2026-05-05 16:45 | -31.57351 | -62.35483 | 28977 ft | 513 kts | 100° |
| 2026-05-05 16:45 | -31.57898 | -62.31350 | 29480 ft | 512 kts | 101° |
| 2026-05-05 16:46 | -31.58447 | -62.27228 | 29996 ft | 511 kts | 101° |
| 2026-05-05 16:46 | -31.58993 | -62.23108 | 30438 ft | 511 kts | 101° |
| 2026-05-05 16:46 | -31.59537 | -62.18997 | 30848 ft | 511 kts | 101° |
| 2026-05-05 16:46 | -31.60079 | -62.14882 | 31246 ft | 511 kts | 101° |
| 2026-05-05 16:47 | -31.60623 | -62.10759 | 31648 ft | 511 kts | 101° |
| 2026-05-05 16:47 | -31.61166 | -62.06642 | 32070 ft | 511 kts | 100° |
| 2026-05-05 16:47 | -31.61707 | -62.02522 | 32473 ft | 511 kts | 100° |
| 2026-05-05 16:47 | -31.62241 | -61.98402 | 32887 ft | 511 kts | 100° |
| 2026-05-05 16:48 | -31.62772 | -61.94284 | 33297 ft | 511 kts | 100° |
| 2026-05-05 16:48 | -31.63305 | -61.90162 | 33725 ft | 511 kts | 100° |
| 2026-05-05 16:48 | -31.63659 | -61.87425 | 33996 ft | 511 kts | 100° |
| 2026-05-05 16:48 | -31.64190 | -61.83297 | 34348 ft | 512 kts | 100° |
| 2026-05-05 16:49 | -31.64720 | -61.79175 | 34693 ft | 512 kts | 101° |
| 2026-05-05 16:49 | -31.65254 | -61.75037 | 34886 ft | 513 kts | 101° |
| 2026-05-05 16:49 | -31.66331 | -61.66689 | 34929 ft | 520 kts | 101° |
| 2026-05-05 16:50 | -31.67398 | -61.58294 | 34925 ft | 520 kts | 101° |
| 2026-05-05 16:50 | -31.68451 | -61.49899 | 34923 ft | 520 kts | 101° |
| 2026-05-05 16:51 | -31.69507 | -61.41503 | 34924 ft | 519 kts | 101° |
| 2026-05-05 16:51 | -31.70564 | -61.33108 | 34924 ft | 519 kts | 101° |
| 2026-05-05 16:52 | -31.71610 | -61.24716 | 34929 ft | 520 kts | 101° |
| 2026-05-05 16:52 | -31.72641 | -61.16317 | 34940 ft | 519 kts | 101° |
| 2026-05-05 16:53 | -31.73678 | -61.07914 | 34952 ft | 519 kts | 101° |
| 2026-05-05 16:53 | -31.74712 | -60.99527 | 34957 ft | 519 kts | 101° |
| 2026-05-05 16:54 | -31.75734 | -60.91142 | 34963 ft | 518 kts | 101° |
| 2026-05-05 16:54 | -31.76749 | -60.82759 | 34964 ft | 518 kts | 101° |
| 2026-05-05 16:55 | -31.77758 | -60.74379 | 34967 ft | 518 kts | 101° |
| 2026-05-05 16:55 | -31.78761 | -60.65994 | 34964 ft | 518 kts | 101° |
| 2026-05-05 16:56 | -31.79757 | -60.57614 | 34970 ft | 518 kts | 101° |
| 2026-05-05 16:56 | -31.81462 | -60.49484 | 34969 ft | 507 kts | 117° |
| 2026-05-05 16:57 | -31.84852 | -60.42375 | 34967 ft | 492 kts | 134° |
| 2026-05-05 16:57 | -31.89043 | -60.36032 | 34964 ft | 491 kts | 134° |
| 2026-05-05 16:58 | -31.93222 | -60.29663 | 34964 ft | 491 kts | 134° |
| 2026-05-05 16:58 | -31.97385 | -60.23290 | 34965 ft | 491 kts | 134° |
| 2026-05-05 16:59 | -32.01549 | -60.16912 | 34968 ft | 491 kts | 134° |
| 2026-05-05 16:59 | -32.05717 | -60.10547 | 34976 ft | 490 kts | 135° |
| 2026-05-05 17:00 | -32.09875 | -60.04178 | 34945 ft | 489 kts | 135° |
| 2026-05-05 17:00 | -32.14035 | -59.97783 | 34949 ft | 488 kts | 135° |
| 2026-05-05 17:01 | -32.18165 | -59.91431 | 34949 ft | 487 kts | 135° |
| 2026-05-05 17:01 | -32.22287 | -59.85083 | 34946 ft | 487 kts | 135° |
| 2026-05-05 17:02 | -32.26406 | -59.78733 | 34949 ft | 487 kts | 135° |
| 2026-05-05 17:02 | -32.30523 | -59.72368 | 34964 ft | 487 kts | 135° |
| 2026-05-05 17:03 | -32.34637 | -59.65993 | 34969 ft | 487 kts | 135° |
| 2026-05-05 17:03 | -32.38746 | -59.59617 | 34974 ft | 487 kts | 135° |
| 2026-05-05 17:04 | -32.42853 | -59.53243 | 34976 ft | 487 kts | 135° |
| 2026-05-05 17:04 | -32.46946 | -59.46872 | 34974 ft | 486 kts | 135° |
| 2026-05-05 17:05 | -32.51042 | -59.40491 | 34969 ft | 486 kts | 135° |
| 2026-05-05 17:05 | -32.55119 | -59.34111 | 34957 ft | 484 kts | 135° |
| 2026-05-05 17:06 | -32.59190 | -59.27717 | 34959 ft | 487 kts | 135° |
| 2026-05-05 17:06 | -32.63263 | -59.21306 | 34960 ft | 487 kts | 135° |
| 2026-05-05 17:07 | -32.67340 | -59.14874 | 34960 ft | 487 kts | 135° |
| 2026-05-05 17:07 | -32.71408 | -59.08442 | 34964 ft | 487 kts | 135° |
| 2026-05-05 17:08 | -32.75482 | -59.01998 | 34965 ft | 488 kts | 135° |
| 2026-05-05 17:08 | -32.79555 | -58.95547 | 34973 ft | 488 kts | 135° |
| 2026-05-05 17:09 | -32.83628 | -58.89085 | 34975 ft | 488 kts | 135° |
| 2026-05-05 17:09 | -32.87693 | -58.82620 | 34982 ft | 488 kts | 135° |
| 2026-05-05 17:10 | -32.91760 | -58.76147 | 34985 ft | 488 kts | 135° |
| 2026-05-05 17:10 | -32.95826 | -58.69669 | 34988 ft | 488 kts | 135° |
| 2026-05-05 17:11 | -32.99886 | -58.63181 | 34988 ft | 489 kts | 135° |
| 2026-05-05 17:11 | -33.04077 | -58.56840 | 34994 ft | 485 kts | 139° |
| 2026-05-05 17:12 | -33.08534 | -58.50842 | 34981 ft | 482 kts | 141° |
| 2026-05-05 17:12 | -33.13025 | -58.44903 | 34985 ft | 483 kts | 140° |
| 2026-05-05 17:13 | -33.17463 | -58.38866 | 34993 ft | 484 kts | 139° |
| 2026-05-05 17:13 | -33.21856 | -58.32766 | 34994 ft | 484 kts | 139° |
| 2026-05-05 17:14 | -33.26247 | -58.26668 | 34991 ft | 484 kts | 139° |
| 2026-05-05 17:14 | -33.30652 | -58.20572 | 34994 ft | 485 kts | 140° |
| 2026-05-05 17:15 | -33.35061 | -58.14477 | 34995 ft | 485 kts | 140° |
| 2026-05-05 17:15 | -33.39469 | -58.08370 | 34998 ft | 485 kts | 140° |
| 2026-05-05 17:16 | -33.43870 | -58.02256 | 34994 ft | 485 kts | 139° |
| 2026-05-05 17:16 | -33.48265 | -57.96121 | 34996 ft | 485 kts | 139° |
| 2026-05-05 17:17 | -33.52655 | -57.89979 | 34998 ft | 485 kts | 139° |
| 2026-05-05 17:17 | -33.57046 | -57.83838 | 35000 ft | 486 kts | 139° |
| 2026-05-05 17:18 | -33.61444 | -57.77673 | 34996 ft | 486 kts | 139° |
| 2026-05-05 17:18 | -33.65836 | -57.71489 | 35003 ft | 487 kts | 139° |
| 2026-05-05 17:19 | -33.70223 | -57.65301 | 35008 ft | 487 kts | 139° |
| 2026-05-05 17:19 | -33.74615 | -57.59113 | 35010 ft | 487 kts | 139° |
| 2026-05-05 17:20 | -33.79004 | -57.52918 | 35012 ft | 487 kts | 139° |
| 2026-05-05 17:20 | -33.83393 | -57.46705 | 35012 ft | 487 kts | 139° |
| 2026-05-05 17:21 | -33.87778 | -57.40489 | 35005 ft | 487 kts | 139° |
| 2026-05-05 17:22 | -33.94349 | -57.31142 | 35008 ft | 487 kts | 139° |
| 2026-05-05 17:22 | -33.98781 | -57.24870 | 34998 ft | 500 kts | 136° |
| 2026-05-05 17:23 | -34.03337 | -57.18416 | 34995 ft | 508 kts | 136° |
| 2026-05-05 17:23 | -34.07894 | -57.11898 | 34997 ft | 509 kts | 136° |
| 2026-05-05 17:24 | -34.12456 | -57.05362 | 34999 ft | 509 kts | 135° |
| 2026-05-05 17:24 | -34.17012 | -56.98840 | 34996 ft | 508 kts | 136° |
| 2026-05-05 17:25 | -34.21568 | -56.92329 | 34993 ft | 508 kts | 136° |
| 2026-05-05 17:25 | -34.26120 | -56.85799 | 34027 ft | 512 kts | 135° |
| 2026-05-05 17:25 | -34.28431 | -56.82478 | 33061 ft | 517 kts | 135° |
| 2026-05-05 17:26 | -34.30720 | -56.79175 | 32642 ft | 509 kts | 135° |
| 2026-05-05 17:26 | -34.32232 | -56.76988 | 31904 ft | 514 kts | 135° |
| 2026-05-05 17:26 | -34.34544 | -56.73642 | 30815 ft | 521 kts | 134° |
| 2026-05-05 17:26 | -34.36885 | -56.70254 | 29780 ft | 526 kts | 134° |
| 2026-05-05 17:27 | -34.39226 | -56.66864 | 28884 ft | 524 kts | 134° |
| 2026-05-05 17:27 | -34.41567 | -56.63472 | 27770 ft | 526 kts | 134° |
| 2026-05-05 17:27 | -34.43917 | -56.60063 | 26649 ft | 529 kts | 134° |
| 2026-05-05 17:27 | -34.46276 | -56.56635 | 25519 ft | 531 kts | 133° |
| 2026-05-05 17:28 | -34.48635 | -56.53204 | 24633 ft | 527 kts | 133° |
| 2026-05-05 17:28 | -34.50818 | -56.49638 | 23695 ft | 529 kts | 125° |
| 2026-05-05 17:28 | -34.52555 | -56.45716 | 22710 ft | 527 kts | 116° |
| 2026-05-05 17:28 | -34.53949 | -56.41637 | 21786 ft | 521 kts | 114° |
| 2026-05-05 17:29 | -34.55314 | -56.37597 | 20892 ft | 513 kts | 114° |
| 2026-05-05 17:29 | -34.56515 | -56.34044 | 19737 ft | 500 kts | 114° |
| 2026-05-05 17:29 | -34.57825 | -56.30169 | 18404 ft | 489 kts | 114° |
| 2026-05-05 17:29 | -34.59111 | -56.26375 | 17617 ft | 481 kts | 114° |
| 2026-05-05 17:30 | -34.60372 | -56.22654 | 16865 ft | 474 kts | 114° |
| 2026-05-05 17:30 | -34.61616 | -56.18982 | 16151 ft | 467 kts | 114° |
| 2026-05-05 17:30 | -34.62840 | -56.15362 | 15469 ft | 460 kts | 113° |
| 2026-05-05 17:30 | -34.64040 | -56.11793 | 14798 ft | 455 kts | 113° |
| 2026-05-05 17:31 | -34.65232 | -56.08248 | 14120 ft | 450 kts | 113° |
| 2026-05-05 17:31 | -34.66411 | -56.04740 | 13391 ft | 447 kts | 112° |
| 2026-05-05 17:31 | -34.67579 | -56.01265 | 12687 ft | 442 kts | 112° |
| 2026-05-05 17:31 | -34.68734 | -55.97818 | 11976 ft | 438 kts | 112° |
| 2026-05-05 17:32 | -34.69875 | -55.94401 | 11260 ft | 434 kts | 112° |
| 2026-05-05 17:32 | -34.70991 | -55.91050 | 11000 ft | 418 kts | 112° |
| 2026-05-05 17:32 | -34.72057 | -55.87854 | 10874 ft | 399 kts | 112° |
| 2026-05-05 17:32 | -34.73079 | -55.84794 | 10754 ft | 383 kts | 112° |
| 2026-05-05 17:33 | -34.74062 | -55.81855 | 10637 ft | 369 kts | 112° |
| 2026-05-05 17:33 | -34.75012 | -55.79014 | 10523 ft | 356 kts | 113° |
| 2026-05-05 17:33 | -34.75928 | -55.76259 | 10412 ft | 346 kts | 112° |
| 2026-05-05 17:33 | -34.76817 | -55.73581 | 10258 ft | 338 kts | 112° |
| 2026-05-05 17:34 | -34.77690 | -55.70955 | 10041 ft | 332 kts | 112° |
| 2026-05-05 17:34 | -34.78558 | -55.68344 | 9624 ft | 336 kts | 112° |
| 2026-05-05 17:34 | -34.79427 | -55.65725 | 9314 ft | 331 kts | 112° |
| 2026-05-05 17:34 | -34.80286 | -55.63121 | 8793 ft | 330 kts | 112° |
| 2026-05-05 17:35 | -34.81106 | -55.60634 | 8337 ft | 328 kts | 112° |
| 2026-05-05 17:35 | -34.81952 | -55.58074 | 7899 ft | 325 kts | 112° |
| 2026-05-05 17:35 | -34.82790 | -55.55536 | 7477 ft | 322 kts | 112° |
| 2026-05-05 17:35 | -34.83620 | -55.53021 | 7060 ft | 319 kts | 112° |
| 2026-05-05 17:36 | -34.84443 | -55.50529 | 6639 ft | 316 kts | 112° |
| 2026-05-05 17:36 | -34.85256 | -55.48070 | 6234 ft | 309 kts | 112° |
| 2026-05-05 17:36 | -34.86048 | -55.45682 | 5836 ft | 300 kts | 112° |
| 2026-05-05 17:36 | -34.86817 | -55.43356 | 5448 ft | 292 kts | 112° |
| 2026-05-05 17:37 | -34.87562 | -55.41095 | 5072 ft | 284 kts | 112° |
| 2026-05-05 17:37 | -34.88284 | -55.38895 | 4707 ft | 276 kts | 112° |
| 2026-05-05 17:37 | -34.88988 | -55.36757 | 4328 ft | 268 kts | 112° |
| 2026-05-05 17:37 | -34.89671 | -55.34681 | 3972 ft | 260 kts | 112° |
| 2026-05-05 17:38 | -34.90327 | -55.32672 | 3652 ft | 251 kts | 111° |
| 2026-05-05 17:38 | -34.90748 | -55.30671 | 3338 ft | 239 kts | 91° |
| 2026-05-05 17:38 | -34.90557 | -55.28715 | 3027 ft | 228 kts | 70° |
| 2026-05-05 17:38 | -34.90084 | -55.26916 | 2735 ft | 219 kts | 70° |
| 2026-05-05 17:39 | -34.89630 | -55.25180 | 2446 ft | 212 kts | 70° |
| 2026-05-05 17:39 | -34.89191 | -55.23488 | 2165 ft | 208 kts | 71° |
| 2026-05-05 17:39 | -34.88759 | -55.21825 | 1900 ft | 205 kts | 71° |
| 2026-05-05 17:39 | -34.88333 | -55.20194 | 1656 ft | 197 kts | 71° |
| 2026-05-05 17:40 | -34.87931 | -55.18650 | 1379 ft | 185 kts | 71° |
| 2026-05-05 17:40 | -34.87555 | -55.17194 | 1098 ft | 176 kts | 72° |
| 2026-05-05 17:40 | -34.87201 | -55.15797 | 809 ft | 169 kts | 72° |
| 2026-05-05 17:40 | -34.86868 | -55.14516 | 700 ft | 149 kts | 71° |
| 2026-05-05 17:41 | -34.86568 | -55.13353 | 511 ft | 140 kts | 71° |
| 2026-05-05 17:41 | -34.86269 | -55.12239 | 315 ft | 136 kts | 71° |
| 2026-05-05 17:41 | -34.85972 | -55.11151 | 137 ft | 135 kts | 71° |
| 2026-05-05 17:41 | -34.85704 | -55.10152 | 102 ft | 105 kts | 72° |
| 2026-05-05 17:42 | -34.85537 | -55.09531 | 102 ft | 41 kts | 72° |
| 2026-05-05 17:42 | -34.85547 | -55.09405 | 103 ft | 10 kts | 159° |
| 2026-05-05 17:42 | -34.85595 | -55.09399 | 103 ft | 4 kts | 175° |
| 2026-05-05 17:42 | -34.85634 | -55.09396 | 103 ft | 10 kts | 177° |
| 2026-05-05 17:43 | -34.85701 | -55.09458 | 102 ft | 16 kts | 254° |
| 2026-05-05 17:43 | -34.85737 | -55.09601 | 101 ft | 19 kts | 251° |
| 2026-05-05 17:43 | -34.85781 | -55.09768 | 101 ft | 18 kts | 251° |
| 2026-05-05 17:43 | -34.85847 | -55.09839 | 100 ft | 15 kts | 168° |
| 2026-05-05 17:44 | -34.85909 | -55.09905 | 100 ft | 15 kts | 253° |
| 2026-05-05 17:44 | -34.85960 | -55.09948 | 100 ft | 6 kts | 153° |
| 2026-05-05 17:44 | -34.85977 | -55.09941 | 101 ft | 0 kts | 161° |